Time;durP1;ratioP1;P1;durP2;ratioP2;P2;SDS_P1;SDS_P2;PMS_P1;PMS_P2;Temp;Humidity;BMP_temperature;BMP_pressure;BME280_temperature;BME280_humidity;BME280_pressure;Samples;Min_cycle;Max_cycle;Signal;HPM_P1;HPM_P2
2022/01/03 00:01:39;;;;;;;22.97;4.73;;;;;;;;;;5046121;28;20135;-69
2022/01/03 00:04:06;;;;;;;21.73;4.60;;;;;;;;;;5042835;28;20059;-69
2022/01/03 00:06:34;;;;;;;28.00;5.10;;;;;;;;;;5028789;28;20079;-69
2022/01/03 00:09:01;;;;;;;24.67;4.33;;;;;;;;;;5027061;28;20058;-69
2022/01/03 00:11:27;;;;;;;21.43;4.30;;;;;;;;;;5038451;28;20037;-69
2022/01/03 00:13:53;;;;;;;27.50;4.50;;;;;;;;;;5046818;28;20041;-69
2022/01/03 00:16:19;;;;;;;25.03;4.43;;;;;;;;;;5046311;28;20131;-69
2022/01/03 00:18:46;;;;;;;24.70;4.47;;;;;;;;;;5046740;28;20049;-69
2022/01/03 00:21:16;;;;;;;23.77;4.97;;;;;;;;;;5029658;28;20041;-69
2022/01/03 00:23:48;;;;;;;28.67;5.10;;;;;;;;;;5031954;28;20517;-68
2022/01/03 00:26:14;;;;;;;22.13;3.93;;;;;;;;;;5028984;28;20052;-69
2022/01/03 00:28:48;;;;;;;26.43;4.17;;;;;;;;;;5028362;28;20052;-69
2022/01/03 00:31:13;;;;;;;;;;;;;;;;;;5028356;28;20056;-69
2022/01/03 00:33:40;;;;;;;27.40;4.30;;;;;;;;;;5047549;28;19921;-69
2022/01/03 00:36:06;;;;;;;22.23;4.47;;;;;;;;;;5046718;28;20061;-69
2022/01/03 00:38:33;;;;;;;26.00;4.33;;;;;;;;;;5039524;28;20087;-69
2022/01/03 00:41:00;;;;;;;33.83;4.80;;;;;;;;;;5022819;28;20049;-69
2022/01/03 00:43:27;;;;;;;23.97;4.73;;;;;;;;;;5024174;28;20381;-69
2022/01/03 00:45:56;;;;;;;28.37;4.40;;;;;;;;;;5036897;28;20847;-69
2022/01/03 00:48:23;;;;;;;24.40;4.20;;;;;;;;;;5041556;28;20100;-69
2022/01/03 00:50:49;;;;;;;23.97;4.00;;;;;;;;;;5031764;28;20052;-69
2022/01/03 00:53:15;;;;;;;29.37;5.47;;;;;;;;;;5039619;28;20037;-69
2022/01/03 00:56:07;;;;;;;24.93;4.33;;;;;;;;;;5045328;28;20044;-69
2022/01/03 00:58:37;;;;;;;20.97;3.80;;;;;;;;;;5046348;28;20075;-69
2022/01/03 01:01:04;;;;;;;29.50;3.93;;;;;;;;;;5051298;28;20076;-69
2022/01/03 01:03:36;;;;;;;18.80;4.53;;;;;;;;;;5034573;28;20463;-69
2022/01/03 01:06:03;;;;;;;28.53;5.10;;;;;;;;;;5049510;28;20056;-69
2022/01/03 01:08:29;;;;;;;30.97;4.60;;;;;;;;;;5032421;28;20048;-69
2022/01/03 01:10:56;;;;;;;21.90;4.70;;;;;;;;;;5050040;28;20091;-69
2022/01/03 01:13:22;;;;;;;24.33;5.63;;;;;;;;;;5040658;28;20503;-69
2022/01/03 01:15:48;;;;;;;29.97;5.37;;;;;;;;;;5022992;28;20321;-70
2022/01/03 01:18:15;;;;;;;26.17;4.90;;;;;;;;;;5031443;28;20041;-69
2022/01/03 01:20:41;;;;;;;28.77;5.67;;;;;;;;;;5039309;28;20049;-70
2022/01/03 01:23:09;;;;;;;25.30;3.93;;;;;;;;;;5051046;28;20040;-69
2022/01/03 01:28:02;;;;;;;26.53;5.17;;;;;;;;;;5051167;28;20094;-69
2022/01/03 01:30:29;;;;;;;26.13;4.43;;;;;;;;;;5042847;28;20048;-69
2022/01/03 01:33:05;;;;;;;19.63;3.60;;;;;;;;;;5039736;28;20116;-69
2022/01/03 01:35:53;;;;;;;23.00;4.27;;;;;;;;;;5045904;28;20387;-70
2022/01/03 01:38:20;;;;;;;26.20;4.33;;;;;;;;;;5043971;28;20094;-70
2022/01/03 01:40:48;;;;;;;33.53;4.93;;;;;;;;;;5034042;28;20053;-69
2022/01/03 01:43:18;;;;;;;22.80;4.87;;;;;;;;;;5051015;28;20040;-69
2022/01/03 01:45:47;;;;;;;24.70;3.90;;;;;;;;;;5032537;28;20132;-69
2022/01/03 01:48:13;;;;;;;21.20;3.70;;;;;;;;;;5039091;28;20125;-69
2022/01/03 01:50:41;;;;;;;22.83;3.80;;;;;;;;;;5030921;28;20411;-70
2022/01/03 01:53:08;;;;;;;28.37;4.40;;;;;;;;;;5042652;28;20186;-69
2022/01/03 01:55:34;;;;;;;19.10;3.30;;;;;;;;;;5050369;28;20106;-69
2022/01/03 01:58:03;;;;;;;24.23;4.63;;;;;;;;;;5032744;28;20147;-70
2022/01/03 02:00:29;;;;;;;22.87;4.10;;;;;;;;;;5033256;28;20056;-70
2022/01/03 02:03:25;;;;;;;23.53;4.43;;;;;;;;;;5030386;28;20099;-70
2022/01/03 02:06:08;;;;;;;21.60;4.63;;;;;;;;;;5025774;28;20050;-70
2022/01/03 02:08:39;;;;;;;25.37;4.43;;;;;;;;;;5029693;28;20049;-70
2022/01/03 02:11:17;;;;;;;23.10;4.87;;;;;;;;;;5030465;28;20057;-70
2022/01/03 02:13:44;;;;;;;24.40;4.33;;;;;;;;;;5045521;28;20075;-70
2022/01/03 02:16:11;;;;;;;24.27;4.20;;;;;;;;;;5045715;28;21038;-70
2022/01/03 02:18:37;;;;;;;19.80;3.77;;;;;;;;;;5029885;28;20056;-70
2022/01/03 02:21:04;;;;;;;22.97;3.90;;;;;;;;;;5038854;28;20091;-70
2022/01/03 02:23:30;;;;;;;19.57;4.23;;;;;;;;;;5040397;28;20487;-70
2022/01/03 02:25:56;;;;;;;22.20;4.40;;;;;;;;;;5049485;28;20045;-70
2022/01/03 02:28:22;;;;;;;30.63;4.27;;;;;;;;;;5038377;28;20492;-70
2022/01/03 02:30:49;;;;;;;29.93;5.70;;;;;;;;;;5034421;28;20510;-70
2022/01/03 02:33:15;;;;;;;23.17;4.27;;;;;;;;;;5038557;28;20047;-70
2022/01/03 02:35:42;;;;;;;20.77;4.23;;;;;;;;;;5028885;28;20163;-70
2022/01/03 02:38:08;;;;;;;22.17;5.20;;;;;;;;;;5029184;28;20095;-70
2022/01/03 02:40:35;;;;;;;20.30;3.60;;;;;;;;;;5023291;28;20049;-70
2022/01/03 02:43:01;;;;;;;27.93;5.00;;;;;;;;;;5026598;28;20045;-70
2022/01/03 02:45:27;;;;;;;27.27;4.07;;;;;;;;;;5042580;28;20037;-70
2022/01/03 02:47:55;;;;;;;26.43;4.50;;;;;;;;;;5022628;28;20080;-70
2022/01/03 02:50:21;;;;;;;25.20;3.93;;;;;;;;;;5028495;28;20095;-70
2022/01/03 02:52:48;;;;;;;26.03;4.13;;;;;;;;;;5028107;28;20284;-70
2022/01/03 02:55:14;;;;;;;27.20;4.70;;;;;;;;;;5039678;28;20060;-70
2022/01/03 02:57:42;;;;;;;25.83;5.87;;;;;;;;;;5040485;28;20044;-71
2022/01/03 03:00:13;;;;;;;23.80;4.50;;;;;;;;;;5039713;28;20049;-70
2022/01/03 03:02:39;;;;;;;33.23;6.67;;;;;;;;;;5031481;28;20128;-70
2022/01/03 03:05:06;;;;;;;24.07;4.50;;;;;;;;;;5024257;28;20136;-70
2022/01/03 03:07:33;;;;;;;23.53;4.47;;;;;;;;;;5035819;28;20048;-70
2022/01/03 03:09:59;;;;;;;19.33;4.03;;;;;;;;;;5028452;28;20045;-70
2022/01/03 03:12:26;;;;;;;23.83;4.17;;;;;;;;;;5031836;28;20038;-70
2022/01/03 03:14:52;;;;;;;19.60;4.23;;;;;;;;;;5043194;28;20049;-70
2022/01/03 03:17:19;;;;;;;30.87;5.53;;;;;;;;;;5037929;28;20064;-70
2022/01/03 03:19:51;;;;;;;32.73;5.93;;;;;;;;;;5042140;28;20052;-71
2022/01/03 03:22:17;;;;;;;32.37;5.10;;;;;;;;;;5038847;28;20045;-71
2022/01/03 03:24:43;;;;;;;31.70;5.77;;;;;;;;;;5046629;28;20044;-70
2022/01/03 03:27:10;;;;;;;40.57;5.63;;;;;;;;;;5046922;28;20108;-70
2022/01/03 03:29:41;;;;;;;32.40;5.27;;;;;;;;;;5029291;28;20124;-70
2022/01/03 03:32:07;;;;;;;28.63;5.10;;;;;;;;;;5037116;28;20049;-70
2022/01/03 03:34:34;;;;;;;30.73;6.80;;;;;;;;;;5029863;28;20067;-70
2022/01/03 03:37:00;;;;;;;30.50;4.93;;;;;;;;;;5046407;28;20044;-70
2022/01/03 03:39:26;;;;;;;32.30;5.30;;;;;;;;;;5046425;28;20036;-70
2022/01/03 03:41:52;;;;;;;32.57;5.37;;;;;;;;;;5029300;28;20557;-70
2022/01/03 03:44:18;;;;;;;28.83;4.90;;;;;;;;;;5035231;28;20049;-70
2022/01/03 03:46:43;;;;;;;28.57;4.90;;;;;;;;;;5027540;28;20412;-70
2022/01/03 03:49:10;;;;;;;32.50;4.73;;;;;;;;;;5035266;28;20119;-71
2022/01/03 03:51:38;;;;;;;34.63;4.90;;;;;;;;;;5035774;28;20085;-70
2022/01/03 03:54:04;;;;;;;28.30;4.30;;;;;;;;;;5031607;28;20120;-70
2022/01/03 03:56:30;;;;;;;25.87;5.43;;;;;;;;;;5032545;28;20053;-70
2022/01/03 03:58:56;;;;;;;22.70;3.37;;;;;;;;;;5035097;28;20049;-70
2022/01/03 04:01:23;;;;;;;22.53;4.83;;;;;;;;;;5040843;28;20052;-70
2022/01/03 04:03:49;;;;;;;29.53;5.37;;;;;;;;;;5036679;28;20071;-70
2022/01/03 04:06:17;;;;;;;29.70;4.13;;;;;;;;;;5028326;28;20034;-70
2022/01/03 04:08:45;;;;;;;29.70;5.07;;;;;;;;;;5027038;28;20750;-71
2022/01/03 04:11:13;;;;;;;30.27;5.47;;;;;;;;;;5038656;28;20049;-70
2022/01/03 04:13:39;;;;;;;22.43;4.80;;;;;;;;;;5036061;28;20045;-70
2022/01/03 04:16:06;;;;;;;27.30;4.40;;;;;;;;;;5027073;28;20128;-71
2022/01/03 04:18:32;;;;;;;28.80;5.17;;;;;;;;;;5045555;28;20531;-71
2022/01/03 04:20:58;;;;;;;31.33;4.30;;;;;;;;;;5038114;28;20532;-70
2022/01/03 04:23:24;;;;;;;30.60;4.83;;;;;;;;;;5050372;28;20534;-70
2022/01/03 04:25:51;;;;;;;35.13;5.87;;;;;;;;;;5042097;28;20094;-70
2022/01/03 04:28:17;;;;;;;29.73;6.00;;;;;;;;;;5023275;28;20056;-70
2022/01/03 04:30:43;;;;;;;29.03;4.97;;;;;;;;;;5042232;28;20053;-70
2022/01/03 04:33:10;;;;;;;36.00;4.93;;;;;;;;;;5036043;28;20125;-71
2022/01/03 04:35:36;;;;;;;32.27;6.83;;;;;;;;;;5031625;28;20053;-70
2022/01/03 04:38:02;;;;;;;27.10;5.70;;;;;;;;;;5046633;28;20339;-71
2022/01/03 04:40:28;;;;;;;31.63;6.43;;;;;;;;;;5044477;28;20052;-70
2022/01/03 04:42:54;;;;;;;22.67;4.53;;;;;;;;;;5035588;28;20077;-71
2022/01/03 04:45:20;;;;;;;28.23;7.43;;;;;;;;;;5030655;28;20053;-71
2022/01/03 04:47:46;;;;;;;31.73;6.50;;;;;;;;;;5034868;28;20155;-71
2022/01/03 04:50:12;;;;;;;30.23;6.00;;;;;;;;;;5046022;28;20046;-71
2022/01/03 04:52:38;;;;;;;33.33;5.80;;;;;;;;;;5036118;28;20137;-71
2022/01/03 04:55:04;;;;;;;31.57;6.17;;;;;;;;;;5041714;28;20467;-71
2022/01/03 04:57:31;;;;;;;35.57;5.47;;;;;;;;;;5039738;28;20397;-71
2022/01/03 04:59:57;;;;;;;35.60;5.20;;;;;;;;;;5041323;28;20052;-71
2022/01/03 05:02:23;;;;;;;32.40;6.20;;;;;;;;;;5045316;28;20075;-71
2022/01/03 05:04:49;;;;;;;31.33;4.50;;;;;;;;;;5049737;28;20057;-71
2022/01/03 05:07:15;;;;;;;35.67;7.43;;;;;;;;;;5046490;28;20069;-71
2022/01/03 05:09:41;;;;;;;28.50;5.40;;;;;;;;;;5029233;28;20080;-71
2022/01/03 05:12:07;;;;;;;33.67;7.47;;;;;;;;;;5040296;28;20135;-70
2022/01/03 05:14:33;;;;;;;24.53;5.50;;;;;;;;;;5030929;28;20053;-70
2022/01/03 05:16:59;;;;;;;28.50;6.43;;;;;;;;;;5030970;28;20057;-71
2022/01/03 05:19:26;;;;;;;30.00;5.37;;;;;;;;;;5027335;28;20400;-71
2022/01/03 05:21:52;;;;;;;31.17;4.63;;;;;;;;;;5028920;28;20053;-71
2022/01/03 05:24:18;;;;;;;37.00;7.00;;;;;;;;;;5028317;28;20447;-71
2022/01/03 05:26:45;;;;;;;29.13;6.20;;;;;;;;;;5029009;28;20151;-71
2022/01/03 05:29:11;;;;;;;41.07;6.97;;;;;;;;;;5010848;28;20073;-71
2022/01/03 05:31:37;;;;;;;34.67;5.27;;;;;;;;;;5019517;28;20444;-71
2022/01/03 05:34:03;;;;;;;33.13;5.33;;;;;;;;;;5029177;28;20500;-70
2022/01/03 05:36:29;;;;;;;30.47;5.50;;;;;;;;;;5027261;28;20400;-70
2022/01/03 05:38:55;;;;;;;34.07;6.37;;;;;;;;;;5027823;28;20057;-71
2022/01/03 05:41:21;;;;;;;25.50;6.07;;;;;;;;;;5028713;28;20065;-70
2022/01/03 05:43:49;;;;;;;29.97;5.80;;;;;;;;;;5028054;28;20049;-71
2022/01/03 05:46:15;;;;;;;33.67;6.77;;;;;;;;;;5028490;28;20419;-71
2022/01/03 05:48:41;;;;;;;26.27;5.87;;;;;;;;;;5028277;28;20052;-71
2022/01/03 05:51:07;;;;;;;36.47;6.17;;;;;;;;;;5016640;28;20042;-71
2022/01/03 05:53:33;;;;;;;33.07;7.63;;;;;;;;;;5027814;28;20393;-71
2022/01/03 05:56:00;;;;;;;29.73;5.53;;;;;;;;;;5027403;28;20088;-71
2022/01/03 05:58:26;;;;;;;45.63;7.60;;;;;;;;;;5028061;28;20408;-71
2022/01/03 06:00:52;;;;;;;41.00;6.37;;;;;;;;;;5028280;28;20048;-71
2022/01/03 06:03:21;;;;;;;41.87;7.80;;;;;;;;;;5027990;28;20419;-71
2022/01/03 06:08:24;;;;;;;38.53;6.80;;;;;;;;;;5024547;28;20420;-70
2022/01/03 06:10:50;;;;;;;38.10;5.87;;;;;;;;;;5028246;28;20525;-71
2022/01/03 06:13:16;;;;;;;34.33;6.63;;;;;;;;;;5028593;28;20506;-70
2022/01/03 06:15:43;;;;;;;37.27;6.10;;;;;;;;;;5020713;28;20041;-70
2022/01/03 06:18:10;;;;;;;42.30;8.33;;;;;;;;;;5029145;28;20049;-71
2022/01/03 06:20:38;;;;;;;44.23;7.27;;;;;;;;;;5028407;28;20575;-71
2022/01/03 06:23:04;;;;;;;42.73;7.67;;;;;;;;;;5028713;28;20491;-71
2022/01/03 06:25:30;;;;;;;37.37;7.50;;;;;;;;;;5023488;28;20428;-71
2022/01/03 06:27:56;;;;;;;37.90;6.37;;;;;;;;;;5024050;28;20044;-71
2022/01/03 06:30:22;;;;;;;40.07;7.20;;;;;;;;;;5036179;28;20061;-71
2022/01/03 06:32:48;;;;;;;30.20;6.07;;;;;;;;;;5031065;28;20215;-70
2022/01/03 06:35:14;;;;;;;44.57;7.70;;;;;;;;;;5032083;28;20159;-71
2022/01/03 06:37:40;;;;;;;41.83;6.87;;;;;;;;;;5028963;28;20079;-71
2022/01/03 06:40:07;;;;;;;36.27;6.87;;;;;;;;;;5035435;28;20048;-71
2022/01/03 06:42:33;;;;;;;41.17;6.57;;;;;;;;;;5028172;28;20049;-71
2022/01/03 06:44:59;;;;;;;47.87;7.47;;;;;;;;;;5028664;28;20045;-71
2022/01/03 06:47:25;;;;;;;41.37;7.30;;;;;;;;;;5026739;28;20136;-71
2022/01/03 06:49:52;;;;;;;53.23;8.87;;;;;;;;;;5026382;28;20179;-71
2022/01/03 06:52:18;;;;;;;39.23;6.87;;;;;;;;;;5027524;28;20408;-71
2022/01/03 06:54:44;;;;;;;33.70;6.73;;;;;;;;;;5026729;28;20634;-71
2022/01/03 06:57:10;;;;;;;42.30;7.00;;;;;;;;;;5026757;28;20045;-71
2022/01/03 06:59:36;;;;;;;53.90;8.80;;;;;;;;;;5026843;28;20041;-71
2022/01/03 07:02:03;;;;;;;50.97;8.80;;;;;;;;;;5026853;28;20045;-71
2022/01/03 07:04:29;;;;;;;47.07;9.43;;;;;;;;;;5027332;28;20049;-71
2022/01/03 07:06:55;;;;;;;36.93;6.80;;;;;;;;;;5026889;28;20041;-71
2022/01/03 07:09:21;;;;;;;37.03;7.73;;;;;;;;;;5026046;28;20044;-71
2022/01/03 07:11:47;;;;;;;39.90;6.23;;;;;;;;;;5026506;28;20053;-71
2022/01/03 07:19:44;;;;;;;56.10;7.80;;;;;;;;;;5026309;28;20052;-71
2022/01/03 07:22:11;;;;;;;44.63;8.53;;;;;;;;;;5028400;28;20088;-71
2022/01/03 07:24:38;;;;;;;52.57;9.17;;;;;;;;;;5025711;28;20587;-71
2022/01/03 07:27:05;;;;;;;48.97;9.37;;;;;;;;;;5022028;28;20055;-71
2022/01/03 07:29:31;;;;;;;41.50;7.23;;;;;;;;;;5033076;28;20068;-71
2022/01/03 07:31:57;;;;;;;46.90;7.67;;;;;;;;;;5030954;28;20415;-71
2022/01/03 07:34:23;;;;;;;50.00;8.20;;;;;;;;;;5038504;28;20041;-71
2022/01/03 07:36:49;;;;;;;40.23;7.13;;;;;;;;;;5037210;28;20088;-71
2022/01/03 07:39:15;;;;;;;49.87;7.70;;;;;;;;;;5033019;28;20049;-71
2022/01/03 07:41:41;;;;;;;49.23;8.57;;;;;;;;;;5031053;28;20054;-71
2022/01/03 07:44:07;;;;;;;46.60;8.97;;;;;;;;;;5028473;28;20053;-71
2022/01/03 07:46:33;;;;;;;47.00;8.57;;;;;;;;;;5025488;28;20056;-71
2022/01/03 07:48:59;;;;;;;47.60;8.67;;;;;;;;;;5027096;28;20038;-71
2022/01/03 07:51:25;;;;;;;51.03;7.73;;;;;;;;;;5040760;28;20041;-71
2022/01/03 07:53:51;;;;;;;46.03;9.07;;;;;;;;;;5009706;28;20060;-71
2022/01/03 07:56:20;;;;;;;43.10;7.43;;;;;;;;;;5026524;28;20451;-71
2022/01/03 07:58:46;;;;;;;35.37;7.83;;;;;;;;;;5023938;28;20099;-70
2022/01/03 08:01:12;;;;;;;43.40;7.47;;;;;;;;;;5027146;28;20515;-70
2022/01/03 08:03:39;;;;;;;36.43;7.43;;;;;;;;;;5023212;28;20138;-70
2022/01/03 08:06:06;;;;;;;44.70;8.40;;;;;;;;;;5021250;28;20531;-70
2022/01/03 08:08:33;;;;;;;39.47;7.43;;;;;;;;;;5022350;28;20054;-69
2022/01/03 08:10:59;;;;;;;41.23;8.43;;;;;;;;;;5024808;28;20049;-69
2022/01/03 08:13:25;;;;;;;38.57;7.43;;;;;;;;;;5024276;28;20115;-69
2022/01/03 08:15:51;;;;;;;37.77;6.90;;;;;;;;;;5024006;28;20193;-69
2022/01/03 08:18:17;;;;;;;47.23;9.00;;;;;;;;;;5022355;28;20415;-69
2022/01/03 08:20:43;;;;;;;34.57;6.60;;;;;;;;;;5022367;28;20095;-69
2022/01/03 08:23:09;;;;;;;35.50;6.30;;;;;;;;;;5006139;28;20148;-69
2022/01/03 08:25:37;;;;;;;38.73;6.73;;;;;;;;;;5019264;28;20235;-70
2022/01/03 08:28:07;;;;;;;32.07;7.60;;;;;;;;;;5024223;28;20495;-69
2022/01/03 08:30:33;;;;;;;35.57;6.83;;;;;;;;;;5027307;28;20053;-70
2022/01/03 08:32:59;;;;;;;37.23;7.70;;;;;;;;;;5024275;28;20491;-70
2022/01/03 08:35:25;;;;;;;43.77;9.03;;;;;;;;;;5027073;28;20046;-69
2022/01/03 08:37:52;;;;;;;40.77;8.40;;;;;;;;;;5023807;28;20807;-70
2022/01/03 08:40:18;;;;;;;36.20;6.03;;;;;;;;;;5043047;28;20135;-70
2022/01/03 08:42:44;;;;;;;35.40;7.37;;;;;;;;;;5024666;28;20150;-70
2022/01/03 08:45:10;;;;;;;45.20;7.73;;;;;;;;;;5030490;28;20053;-69
2022/01/03 08:47:36;;;;;;;38.97;7.40;;;;;;;;;;5022826;28;20045;-69
2022/01/03 08:50:02;;;;;;;31.50;6.33;;;;;;;;;;5033229;28;20492;-69
2022/01/03 08:52:28;;;;;;;38.80;7.03;;;;;;;;;;5020450;28;20038;-70
2022/01/03 08:54:54;;;;;;;31.77;6.23;;;;;;;;;;5023607;28;20603;-69
2022/01/03 08:57:21;;;;;;;37.73;7.47;;;;;;;;;;5020262;28;20154;-69
2022/01/03 08:59:48;;;;;;;42.43;8.63;;;;;;;;;;5017774;28;20103;-70
2022/01/03 09:02:16;;;;;;;37.47;6.47;;;;;;;;;;5030734;28;20090;-70
2022/01/03 09:04:42;;;;;;;32.73;7.57;;;;;;;;;;5029426;28;20108;-70
2022/01/03 09:07:09;;;;;;;32.33;5.60;;;;;;;;;;5028527;28;20046;-69
2022/01/03 09:09:35;;;;;;;39.77;7.80;;;;;;;;;;5027067;28;20041;-69
2022/01/03 09:12:02;;;;;;;36.70;6.03;;;;;;;;;;5028647;28;20053;-69
2022/01/03 09:14:28;;;;;;;33.10;7.17;;;;;;;;;;5020273;28;20166;-70
2022/01/03 09:16:54;;;;;;;37.70;7.20;;;;;;;;;;5046506;28;20056;-70
2022/01/03 09:19:20;;;;;;;36.17;6.77;;;;;;;;;;5030797;28;20045;-70
2022/01/03 09:21:46;;;;;;;39.57;8.13;;;;;;;;;;5028367;28;20081;-70
2022/01/03 09:29:32;;;;;;;37.30;9.07;;;;;;;;;;5029648;28;21212;-70
2022/01/03 09:31:58;;;;;;;23.43;4.97;;;;;;;;;;5029563;28;20096;-70
2022/01/03 09:34:24;;;;;;;30.10;6.20;;;;;;;;;;5029091;28;20045;-69
2022/01/03 09:36:50;;;;;;;30.47;6.10;;;;;;;;;;5028513;28;20068;-70
2022/01/03 09:39:16;;;;;;;33.27;6.70;;;;;;;;;;5028994;28;20057;-70
2022/01/03 09:41:44;;;;;;;34.33;6.97;;;;;;;;;;5030803;28;20049;-70
2022/01/03 09:44:11;;;;;;;32.93;6.27;;;;;;;;;;5029077;28;20050;-70
2022/01/03 09:46:42;;;;;;;28.53;5.83;;;;;;;;;;5028899;28;20050;-70
2022/01/03 09:49:10;;;;;;;28.73;6.43;;;10.30;25.30;;;;;;5030197;28;20075;-69
2022/01/03 09:51:36;;;;;;;31.13;6.43;;;;;;;;;;5030177;28;20053;-69
2022/01/03 09:54:11;;;;;;;36.67;7.63;;;;;;;;;;5028766;28;20041;-70
2022/01/03 09:56:38;;;;;;;31.87;7.13;;;;;;;;;;5030132;28;20053;-69
2022/01/03 09:59:05;;;;;;;26.63;5.93;;;;;;;;;;5029215;28;20054;-70
2022/01/03 10:01:32;;;;;;;28.93;7.37;;;;;;;;;;5028200;28;20080;-69
2022/01/03 10:03:58;;;;;;;31.77;7.17;;;;;;;;;;5029111;28;20049;-70
2022/01/03 10:06:25;;;;;;;34.23;6.03;;;;;;;;;;5030033;28;20523;-70
2022/01/03 10:08:51;;;;;;;34.13;7.03;;;;;;;;;;5028614;28;20060;-70
2022/01/03 10:11:19;;;;;;;31.50;7.27;;;;;;;;;;5029891;28;20052;-69
2022/01/03 10:13:45;;;;;;;40.60;7.03;;;;;;;;;;5028532;28;20084;-69
2022/01/03 10:16:11;;;;;;;34.77;6.30;;;;;;;;;;5028682;28;20579;-69
2022/01/03 10:18:38;;;;;;;31.10;6.07;;;;;;;;;;5028128;28;20045;-69
2022/01/03 10:21:05;;;;;;;33.97;7.00;;;;;;;;;;5029680;28;20049;-69
2022/01/03 10:23:31;;;;;;;31.67;5.43;;;;;;;;;;5028355;28;20533;-70
2022/01/03 10:26:15;;;;;;;29.87;7.27;;;;;;;;;;5029205;28;20128;-69
2022/01/03 10:28:41;;;;;;;33.10;7.03;;;;;;;;;;5029198;28;20068;-69
2022/01/03 10:31:15;;;;;;;33.70;5.13;;;;;;;;;;5012005;28;20053;-69
2022/01/03 10:33:41;;;;;;;31.00;6.05;;;;;;;;;;5027972;28;20049;-69
2022/01/03 10:36:11;;;;;;;38.97;6.27;;;;;;;;;;5027644;28;20052;-69
2022/01/03 10:38:37;;;;;;;32.77;5.60;;;;;;;;;;5028918;28;20049;-69
2022/01/03 10:41:12;;;;;;;31.13;5.60;;;;;;;;;;5027461;28;20553;-69
2022/01/03 10:43:38;;;;;;;29.83;5.80;;;;;;;;;;5027461;28;20045;-69
2022/01/03 10:46:18;;;;;;;32.63;5.83;;;;;;;;;;5029124;28;20050;-69
2022/01/03 10:48:44;;;;;;;28.93;6.40;;;;;;;;;;5027880;28;20049;-70
2022/01/03 10:51:11;;;;;;;33.73;6.93;;;;;;;;;;5028882;28;20049;-69
2022/01/03 10:53:37;;;;;;;26.40;5.77;;;;;;;;;;5028491;28;20099;-69
2022/01/03 10:56:20;;;;;;;35.10;7.50;;;;;;;;;;5027572;28;20049;-69
2022/01/03 10:58:46;;;;;;;31.33;6.15;;;;;;;;;;5028709;28;20060;-69
2022/01/03 11:01:22;;;;;;;32.47;7.37;;;;;;;;;;5027854;28;20049;-69
2022/01/03 11:03:48;;;;;;;28.27;6.23;;;;;;;;;;5027898;28;20075;-70
2022/01/03 11:11:38;;;;;;;27.07;5.77;;;;;;;;;;5028787;28;20053;-69
2022/01/03 11:14:04;;;;;;;32.27;5.57;;;;;;;;;;5011211;28;20045;-69
2022/01/03 11:16:34;;;;;;;32.83;5.73;;;;;;;;;;5027870;28;20095;-69
2022/01/03 11:19:01;;;;;;;34.90;7.00;;;;;;;;;;5028197;28;20057;-69
2022/01/03 11:21:28;;;;;;;36.87;7.07;;;;;;;;;;5024780;28;20088;-69
2022/01/03 11:24:11;;;;;;;38.93;6.10;;;;;;;;;;5025900;28;20404;-70
2022/01/03 11:26:41;;;;;;;38.17;7.17;;;;;;;;;;5026051;28;20049;-69
2022/01/03 11:29:07;;;;;;;34.83;6.80;;;;;;;;;;5027124;28;20295;-69
2022/01/03 11:31:38;;;;;;;37.20;7.10;;;;;;;;;;5025537;28;20151;-69
2022/01/03 11:34:04;;;;;;;39.70;9.00;;;;;;;;;;5010468;28;20050;-69
2022/01/03 11:36:30;;;;;;;28.07;6.40;;;;;;;;;;5025902;28;20049;-69
2022/01/03 11:38:57;;;;;;;25.50;5.57;;;;;;;;;;5027260;28;20408;-68
2022/01/03 11:41:23;;;;;;;31.60;6.53;;;;;;;;;;5025403;28;20041;-69
2022/01/03 11:43:49;;;;;;;36.97;7.27;;;;;;;;;;5027452;28;20053;-69
2022/01/03 11:46:15;;;;;;;32.53;6.87;;;;;;;;;;5025767;28;20098;-69
2022/01/03 11:48:41;;;;;;;25.13;6.17;;;;;;;;;;5027006;28;20049;-68
2022/01/03 11:51:09;;;;;;;36.13;6.10;;;;;;;;;;5026623;28;20051;-69
2022/01/03 11:53:36;;;;;;;39.13;6.60;;;;;;;;;;5024701;28;20142;-69
2022/01/03 11:56:06;;;;;;;24.27;5.33;;;;;;;;;;5027617;28;20111;-69
2022/01/03 12:04:00;;;;;;;30.83;6.80;;;;;;;;;;5025521;28;20041;-68
2022/01/03 12:06:30;;;;;;;26.30;5.30;;;;;;;;;;5027274;28;20104;-68
2022/01/03 12:08:58;;;;;;;29.20;5.53;;;;;;;;;;5027908;28;20050;-68
2022/01/03 12:11:25;;;;;;;31.03;5.80;;;;;;;;;;5027214;28;20144;-68
2022/01/03 12:13:56;;;;;;;33.67;6.37;;;;;;;;;;5026738;28;20049;-69
2022/01/03 12:16:40;;;;;;;28.60;6.87;;;;;;;;;;5028079;28;20054;-68
2022/01/03 12:19:09;;;;;;;22.10;5.00;;;;;;;;;;5027172;28;20049;-69
2022/01/03 12:21:50;;;;;;;28.73;5.40;;;;;;;;;;5036371;28;20072;-68
2022/01/03 12:24:28;;;;;;;23.90;5.33;;;;;;;;;;5028193;28;20073;-68
2022/01/03 12:27:13;;;;;;;27.87;6.53;;;;;;;;;;5027199;28;20136;-68
2022/01/03 12:29:57;;;;;;;25.07;6.03;;;;;;;;;;5026559;28;20048;-68
2022/01/03 12:32:29;;;;;;;26.80;6.23;;;;;;;;;;5027358;28;20041;-68
2022/01/03 12:35:10;;;;;;;27.33;5.67;;;;;;;;;;5027196;28;20132;-68
2022/01/03 12:37:39;;;;;;;29.67;6.60;;;;;;;;;;5017397;28;20540;-69
2022/01/03 12:40:05;;;;;;;34.53;6.53;;;;;;;;;;5030300;28;20049;-69
2022/01/03 12:42:51;;;;;;;31.17;6.17;;;;;;;;;;5029696;28;20385;-68
2022/01/03 12:45:29;;;;;;;26.27;5.57;;;;;;;;;;5040260;28;20577;-68
2022/01/03 12:48:15;;;;;;;33.97;5.57;;;;;;;;;;5039254;28;20058;-68
2022/01/03 12:50:45;;;;;;;29.10;5.60;;;;;;;;;;5025072;28;20528;-68
2022/01/03 12:53:24;;;;;;;30.53;7.07;;;;;;;;;;5041536;28;20537;-67
2022/01/03 12:55:53;;;;;;;31.90;7.77;;;;;;;;;;5040264;28;20407;-67
2022/01/03 12:58:19;;;;;;;29.53;5.47;;;;;;;;;;5030279;28;20053;-68
2022/01/03 13:00:57;;;;;;;30.20;5.77;;;;;;;;;;5036759;28;20407;-67
2022/01/03 13:03:27;;;;;;;28.20;5.17;;;;;;;;;;5046697;28;20091;-68
2022/01/03 13:06:06;;;;;;;21.80;4.77;;;;;;;;;;5047414;28;20124;-67
2022/01/03 13:08:32;;;;;;;28.30;4.90;;;;;;;;;;5028842;28;20107;-67
2022/01/03 13:11:01;;;;;;;32.70;6.40;;;;;;;;;;5038234;28;20049;-68
2022/01/03 13:13:28;;;;;;;29.83;5.43;;;;;;;;;;5012908;28;20048;-68
2022/01/03 13:15:54;;;;;;;35.87;6.53;;;;;;;;;;5044744;28;20064;-67
2022/01/03 13:18:20;;;;;;;27.77;5.30;;;;;;;;;;5031861;28;21759;-68
2022/01/03 13:20:56;;;;;;;24.87;6.07;;;;;;;;;;5040403;28;20073;-67
2022/01/03 13:23:24;;;;;;;25.97;6.33;;;;;;;;;;5020291;28;20046;-67
2022/01/03 13:25:50;;;;;;;29.80;5.53;;;;;;;;;;5021779;28;20423;-67
2022/01/03 13:28:16;;;;;;;32.27;5.70;;;;;;;;;;5030673;28;20045;-67
2022/01/03 13:31:01;;;;;;;24.40;5.30;;;;;;;;;;5029315;28;20112;-67
2022/01/03 13:33:27;;;;;;;32.27;6.43;;;;;;;;;;5030368;28;20126;-68
2022/01/03 13:36:03;;;;;;;25.50;5.77;;;;;;;;;;5029930;28;20081;-68
2022/01/03 13:38:29;;;;;;;32.97;5.73;;;;;;;;;;5030555;28;20531;-67
2022/01/03 13:41:09;;;;;;;31.67;5.97;;;;;;;;;;5029159;28;20427;-67
2022/01/03 13:43:40;;;;;;;23.40;5.40;;;;;;;;;;5030364;28;20042;-67
2022/01/03 13:51:19;;;;;;;27.80;6.77;;;;;;;;;;5029874;28;20046;-67
2022/01/03 13:53:49;;;;;;;21.63;4.87;;;;;;;;;;5029832;28;20088;-67
2022/01/03 13:56:15;;;;;;;39.03;7.80;;;;;;;;;;5029887;28;20088;-67
2022/01/03 13:58:43;;;;;;;34.27;6.17;;;;;;;;;;5029796;28;20081;-67
2022/01/03 14:01:10;;;;;;;26.40;5.77;;;;;;;;;;5029696;28;20092;-67
2022/01/03 14:03:36;;;;;;;31.07;5.53;;;;;;;;;;5029798;28;20487;-67
2022/01/03 14:06:20;;;;;;;26.37;5.50;;;;;;;;;;5028260;28;20049;-67
2022/01/03 14:08:49;;;;;;;28.25;5.40;;;;;;;;;;5030107;28;20049;-67
2022/01/03 14:11:16;;;;;;;28.60;5.63;;;;;;;;;;5028343;28;20057;-67
2022/01/03 14:13:43;;;;;;;28.00;5.83;;;;;;;;;;5029859;28;20131;-67
2022/01/03 14:16:10;;;;;;;32.40;5.57;;;;;;;;;;5029681;28;20528;-67
2022/01/03 14:18:49;;;;;;;30.50;5.80;;;;;;;;;;5028925;28;20049;-67
2022/01/03 14:21:16;;;;;;;27.30;5.67;;;;;;;;;;5033713;28;20116;-67
2022/01/03 14:23:42;;;;;;;26.00;6.30;;;;;;;;;;5029907;28;20496;-66
2022/01/03 14:26:15;;;;;;;31.17;6.60;;;;;;;;;;5029731;28;20053;-67
2022/01/03 14:28:41;;;;;;;30.50;6.20;;;;;;;;;;5029624;28;20077;-67
2022/01/03 14:31:09;;;;;;;25.60;7.23;;;;;;;;;;5029610;28;20045;-67
2022/01/03 14:33:39;;;;;;;24.47;4.50;;;;;;;;;;5029111;28;20420;-67
2022/01/03 14:36:11;;;;;;;45.13;8.23;;;;;;;;;;5028406;28;20077;-67
2022/01/03 14:38:40;;;;;;;25.70;5.20;;;;;;;;;;5028749;28;20516;-67
2022/01/03 14:41:06;;;;;;;21.73;5.93;;;;;;;;;;5029213;28;20140;-67
2022/01/03 14:43:32;;;;;;;34.67;6.73;;;;;;;;;;5028056;28;20427;-67
2022/01/03 14:46:06;;;;;;;44.20;7.57;;;;;;;;;;5027660;28;20163;-67
2022/01/03 14:48:32;;;;;;;29.20;6.20;;;;;;;;;;5029017;28;20418;-67
2022/01/03 14:51:08;;;;;;;26.50;5.00;;;;;;;;;;5027707;28;20056;-66
2022/01/03 14:53:34;;;;;;;28.00;5.27;;;;;;;;;;5029074;28;20053;-66
2022/01/03 14:56:00;;;;;;;23.40;5.00;;;;;;;;;;5029102;28;20163;-66
2022/01/03 14:58:26;;;;;;;35.33;5.93;;;;;;;;;;5028271;28;20041;-67
2022/01/03 15:00:52;;;;;;;33.43;6.93;;;;;;;;;;5027329;28;20076;-67
2022/01/03 15:03:18;;;;;;;34.47;5.07;;;;;;;;;;5029166;28;20049;-67
2022/01/03 15:05:45;;;;;;;30.33;5.60;;;;;;;;;;5028820;28;20088;-67
2022/01/03 15:08:12;;;;;;;26.53;4.63;;;;;;;;;;5029001;28;20381;-67